createdAt,value
2023-06-09T00:02:19.835Z,101137.98
2023-06-09T00:04:49.450Z,101133.00
2023-06-09T00:07:17.861Z,101129.42
2023-06-09T00:09:45.880Z,101134.55
2023-06-09T00:12:13.925Z,101134.73
2023-06-09T00:14:43.120Z,101132.25
2023-06-09T00:17:11.329Z,101135.14
2023-06-09T00:19:43.363Z,101135.42
2023-06-09T00:22:15.349Z,101138.29
2023-06-09T00:24:45.200Z,101142.88
2023-06-09T00:27:13.423Z,101141.41
2023-06-09T00:29:41.506Z,101145.10
2023-06-09T00:32:10.085Z,101148.00
2023-06-09T00:34:38.843Z,101151.71
2023-06-09T00:37:06.982Z,101151.64
2023-06-09T00:39:34.997Z,101142.42
2023-06-09T00:42:03.033Z,101146.55
2023-06-09T00:44:31.063Z,101146.56
2023-06-09T00:46:59.192Z,101145.56
2023-06-09T00:49:27.420Z,101142.38
2023-06-09T00:51:55.434Z,101144.17
2023-06-09T00:54:23.504Z,101143.28
2023-06-09T00:56:51.560Z,101143.70
2023-06-09T00:59:19.706Z,101144.21
2023-06-09T01:01:48.272Z,101146.63
2023-06-09T01:04:16.206Z,101145.22
2023-06-09T01:07:03.204Z,101145.95
2023-06-09T01:09:36.033Z,101147.44
2023-06-09T01:12:17.076Z,101147.05
2023-06-09T01:15:07.274Z,101145.09
2023-06-09T01:17:35.981Z,101149.02
2023-06-09T01:20:05.120Z,101152.34
2023-06-09T01:22:52.010Z,101154.33
2023-06-09T01:25:36.082Z,101147.28
2023-06-09T01:28:24.450Z,101147.72
2023-06-09T01:30:53.133Z,101143.59
2023-06-09T01:33:24.327Z,101141.68
2023-06-09T01:35:53.395Z,101139.79
2023-06-09T01:38:23.112Z,101142.02
2023-06-09T01:40:51.137Z,101143.59
2023-06-09T01:43:20.210Z,101142.50
2023-06-09T01:45:48.456Z,101145.56
2023-06-09T01:48:18.975Z,101145.00
2023-06-09T01:50:55.424Z,101146.02
2023-06-09T01:53:43.067Z,101147.29
2023-06-09T01:56:28.996Z,101144.92
2023-06-09T01:58:58.928Z,101143.66
2023-06-09T02:01:27.413Z,101146.08
2023-06-09T02:03:56.038Z,101144.65
2023-06-09T02:06:24.164Z,101144.91
2023-06-09T02:08:52.318Z,101149.08
2023-06-09T02:11:20.740Z,101149.06
2023-06-09T02:13:55.683Z,101150.98
2023-06-09T02:16:24.046Z,101147.60
2023-06-09T02:18:53.534Z,101149.85
2023-06-09T02:21:21.713Z,101151.18
2023-06-09T02:23:49.853Z,101154.36
2023-06-09T02:26:18.571Z,101152.42
2023-06-09T02:28:48.659Z,101156.20
2023-06-09T02:31:17.295Z,101152.30
2023-06-09T02:33:45.471Z,101150.20
2023-06-09T02:36:16.854Z,101148.58
2023-06-09T02:38:44.900Z,101147.59
2023-06-09T02:41:13.221Z,101147.42
2023-06-09T02:43:41.241Z,101151.92
2023-06-09T02:46:10.497Z,101149.10
2023-06-09T02:48:38.813Z,101152.34
2023-06-09T02:51:08.086Z,101150.68
2023-06-09T02:53:36.216Z,101152.08
2023-06-09T02:56:04.821Z,101147.58
2023-06-09T02:58:36.189Z,101149.85
2023-06-09T03:01:04.253Z,101148.73
2023-06-09T03:03:32.430Z,101149.60
2023-06-09T03:06:00.580Z,101149.98
2023-06-09T03:08:29.553Z,101154.98
2023-06-09T03:10:57.624Z,101154.14
2023-06-09T03:13:25.806Z,101155.14
2023-06-09T03:15:54.650Z,101150.98
2023-06-09T03:18:23.155Z,101149.46
2023-06-09T03:20:52.110Z,101148.64
2023-06-09T03:23:22.103Z,101149.52
2023-06-09T03:25:53.952Z,101155.98
2023-06-09T03:28:23.816Z,101153.98
2023-06-09T03:30:51.899Z,101152.05
2023-06-09T03:33:20.771Z,101150.68
2023-06-09T03:35:50.261Z,101152.95
2023-06-09T03:38:19.176Z,101154.63
2023-06-09T03:40:47.277Z,101159.05
2023-06-09T03:43:15.649Z,101158.42
2023-06-09T03:45:43.790Z,101163.20
2023-06-09T03:48:13.115Z,101162.89
2023-06-09T03:50:41.839Z,101164.73
2023-06-09T03:53:11.085Z,101164.31
2023-06-09T03:55:40.584Z,101165.42
2023-06-09T03:58:11.419Z,101164.14
2023-06-09T04:00:40.373Z,101161.70
2023-06-09T04:03:08.951Z,101165.02
2023-06-09T04:05:37.295Z,101172.05
2023-06-09T04:08:05.898Z,101171.67
2023-06-09T04:10:33.900Z,101176.41
2023-06-09T04:13:01.973Z,101175.45
2023-06-09T04:15:31.017Z,101178.53
2023-06-09T04:17:59.350Z,101181.40
2023-06-09T04:20:30.992Z,101180.51
2023-06-09T04:22:59.283Z,101177.85
2023-06-09T04:25:30.081Z,101179.84
2023-06-09T04:28:04.533Z,101171.64
2023-06-09T04:30:35.791Z,101169.41
2023-06-09T04:33:08.920Z,101167.23
2023-06-09T04:35:37.437Z,101169.84
2023-06-09T04:38:06.125Z,101175.14
2023-06-09T04:40:34.624Z,101169.33
2023-06-09T04:43:03.746Z,101167.34
2023-06-09T04:45:36.930Z,101164.52
2023-06-09T04:48:23.427Z,101160.06
2023-06-09T04:50:51.491Z,101159.60
2023-06-09T04:53:21.146Z,101162.66
2023-06-09T04:55:55.342Z,101161.69
2023-06-09T04:58:25.098Z,101161.69
2023-06-09T05:00:54.516Z,101159.09
2023-06-09T05:03:24.872Z,101157.39
2023-06-09T05:05:53.685Z,101156.85
2023-06-09T05:08:22.800Z,101158.48
2023-06-09T05:10:51.277Z,101160.34
2023-06-09T05:13:19.891Z,101161.45
2023-06-09T05:15:48.591Z,101164.16
2023-06-09T05:18:19.080Z,101169.86
2023-06-09T05:20:47.700Z,101166.92
2023-06-09T05:23:18.983Z,101169.88
2023-06-09T05:25:47.281Z,101168.20
2023-06-09T05:28:15.678Z,101167.45
2023-06-09T05:30:43.686Z,101169.06
2023-06-09T05:33:12.168Z,101172.52
2023-06-09T05:35:40.310Z,101172.23
2023-06-09T05:38:09.057Z,101174.96
2023-06-09T05:40:37.075Z,101176.44
2023-06-09T05:43:05.204Z,101172.83
2023-06-09T05:45:33.343Z,101176.34
2023-06-09T05:48:01.497Z,101181.52
2023-06-09T05:50:29.888Z,101182.59
2023-06-09T05:52:57.829Z,101182.50
2023-06-09T05:55:27.168Z,101182.48
2023-06-09T05:57:55.318Z,101181.92
2023-06-09T06:00:30.415Z,101185.84
2023-06-09T06:03:04.732Z,101187.74
2023-06-09T06:05:33.213Z,101189.68
2023-06-09T06:08:02.307Z,101193.83
2023-06-09T06:10:30.585Z,101197.48
2023-06-09T06:13:05.161Z,101197.88
2023-06-09T06:15:33.213Z,101201.32
2023-06-09T06:18:01.270Z,101199.33
2023-06-09T06:20:29.592Z,101200.26
2023-06-09T06:22:58.686Z,101202.85
2023-06-09T06:25:26.834Z,101200.48
2023-06-09T06:27:54.822Z,101202.26
2023-06-09T06:30:23.008Z,101205.84
2023-06-09T06:32:51.977Z,101206.41
2023-06-09T06:35:29.155Z,101206.35
2023-06-09T06:37:57.717Z,101208.29
2023-06-09T06:40:25.974Z,101208.71
2023-06-09T06:42:54.177Z,101205.73
2023-06-09T06:45:29.444Z,101205.23
2023-06-09T06:47:57.682Z,101205.11
2023-06-09T06:50:26.908Z,101201.12
2023-06-09T06:52:55.753Z,101200.71
2023-06-09T06:55:23.920Z,101200.16
2023-06-09T06:57:51.986Z,101200.36
2023-06-09T07:00:20.514Z,101203.15
2023-06-09T07:02:48.981Z,101204.88
2023-06-09T07:05:17.354Z,101207.84
2023-06-09T07:07:45.421Z,101206.23
2023-06-09T07:10:14.828Z,101208.05
2023-06-09T07:12:43.031Z,101204.73
2023-06-09T07:15:11.457Z,101203.91
2023-06-09T07:17:40.169Z,101203.20
2023-06-09T07:20:10.078Z,101199.25
2023-06-09T07:22:42.633Z,101196.70
2023-06-09T07:25:11.019Z,101192.20
2023-06-09T07:27:39.078Z,101187.61
2023-06-09T07:30:09.306Z,101187.67
2023-06-09T07:32:38.324Z,101186.36
2023-06-09T07:35:06.706Z,101185.29
2023-06-09T07:37:38.058Z,101185.00
2023-06-09T07:40:19.285Z,101186.62
2023-06-09T07:42:52.205Z,101184.03
2023-06-09T07:45:20.405Z,101182.12
2023-06-09T07:47:48.844Z,101183.73
2023-06-09T07:50:19.177Z,101185.56
2023-06-09T07:52:47.361Z,101184.09
2023-06-09T07:55:16.224Z,101185.96
2023-06-09T07:57:45.159Z,101187.20
2023-06-09T08:00:15.252Z,101187.33
2023-06-09T08:02:44.726Z,101186.65
2023-06-09T08:05:18.351Z,101185.79
2023-06-09T08:07:46.543Z,101183.70
2023-06-09T08:10:14.552Z,101182.65
2023-06-09T08:12:42.898Z,101182.41
2023-06-09T08:15:11.478Z,101181.84
2023-06-09T08:17:40.489Z,101178.45
2023-06-09T08:20:09.390Z,101179.27
2023-06-09T08:22:38.072Z,101177.73
2023-06-09T08:25:06.893Z,101177.00
2023-06-09T08:27:35.152Z,101174.75
2023-06-09T08:30:04.975Z,101183.53
2023-06-09T08:32:34.903Z,101174.30
2023-06-09T08:35:09.432Z,101171.89
2023-06-09T08:37:38.258Z,101180.48
2023-06-09T08:40:10.427Z,101182.48
2023-06-09T08:42:39.916Z,101179.06
2023-06-09T08:45:09.650Z,101182.88
2023-06-09T08:47:38.433Z,101178.96
2023-06-09T08:50:08.433Z,101178.83
2023-06-09T08:52:37.936Z,101180.52
2023-06-09T08:55:06.939Z,101177.55
2023-06-09T08:57:36.540Z,101180.48
2023-06-09T09:00:10.147Z,101181.81
2023-06-09T09:02:39.228Z,101175.98
2023-06-09T09:05:07.691Z,101178.96
2023-06-09T09:07:36.233Z,101175.54
2023-06-09T09:10:04.510Z,101174.86
2023-06-09T09:12:51.821Z,101170.56
2023-06-09T09:15:20.026Z,101171.98
2023-06-09T09:17:48.670Z,101173.40
2023-06-09T09:20:17.384Z,101174.36
2023-06-09T09:22:46.228Z,101173.95
2023-06-09T09:25:24.975Z,101176.24
2023-06-09T09:28:12.766Z,101174.58
2023-06-09T09:30:57.248Z,101173.82
2023-06-09T09:33:28.446Z,101174.30
2023-06-09T09:35:58.281Z,101176.17
2023-06-09T09:38:29.002Z,101172.27
2023-06-09T09:40:58.290Z,101172.30
2023-06-09T09:43:27.633Z,101168.17
2023-06-09T09:45:58.026Z,101161.77
2023-06-09T09:48:26.706Z,101160.97
2023-06-09T09:50:56.444Z,101161.81
2023-06-09T09:53:25.124Z,101164.05
2023-06-09T09:55:55.581Z,101163.81
2023-06-09T09:58:36.600Z,101163.45
2023-06-09T10:01:07.842Z,101159.63
2023-06-09T10:03:39.233Z,101160.76
2023-06-09T10:06:08.513Z,101158.23
2023-06-09T10:08:36.813Z,101155.48
2023-06-09T10:11:04.855Z,101155.04
2023-06-09T10:13:32.903Z,101153.04
2023-06-09T10:16:01.052Z,101153.70
2023-06-09T10:18:29.154Z,101156.67
2023-06-09T10:20:57.223Z,101154.77
2023-06-09T10:23:26.408Z,101150.99
2023-06-09T10:25:54.465Z,101149.34
2023-06-09T10:28:23.083Z,101146.13
2023-06-09T10:30:52.185Z,101145.59
2023-06-09T10:33:24.767Z,101139.27
2023-06-09T10:35:57.743Z,101135.91
2023-06-09T10:38:29.828Z,101126.69
2023-06-09T10:41:14.411Z,101128.90
2023-06-09T10:44:07.196Z,101127.34
2023-06-09T10:46:45.574Z,101129.23
2023-06-09T10:49:26.909Z,101119.07
2023-06-09T10:51:55.675Z,101114.65
2023-06-09T10:54:25.162Z,101109.86
2023-06-09T10:57:01.996Z,101111.48
2023-06-09T10:59:31.622Z,101109.92
2023-06-09T11:02:09.816Z,101113.33
2023-06-09T11:04:46.921Z,101108.15
2023-06-09T11:07:26.793Z,101112.73
2023-06-09T11:09:57.848Z,101115.02
2023-06-09T11:12:26.004Z,101115.58
2023-06-09T11:15:00.667Z,101107.63
2023-06-09T11:17:42.309Z,101100.06
2023-06-09T11:20:11.197Z,101100.14
2023-06-09T11:22:43.352Z,101095.70
2023-06-09T11:25:21.325Z,101096.41
2023-06-09T11:27:50.149Z,101089.86
2023-06-09T11:30:19.968Z,101084.73
2023-06-09T11:32:48.378Z,101082.67
2023-06-09T11:35:29.331Z,101084.81
2023-06-09T11:37:58.751Z,101071.59
2023-06-09T11:40:27.811Z,101066.31
2023-06-09T11:42:55.965Z,101063.75
2023-06-09T11:45:24.592Z,101061.84
2023-06-09T11:48:01.210Z,101058.33
2023-06-09T11:50:44.100Z,101057.30
2023-06-09T11:53:19.169Z,101060.10
2023-06-09T11:55:48.058Z,101056.77
2023-06-09T11:58:17.011Z,101057.80
2023-06-09T12:00:46.001Z,101053.13
2023-06-09T12:03:14.124Z,101056.44
2023-06-09T12:05:47.995Z,101050.56
2023-06-09T12:08:16.243Z,101048.83
2023-06-09T12:10:44.243Z,101047.83
2023-06-09T12:13:12.630Z,101042.33
2023-06-09T12:15:42.626Z,101029.80
2023-06-09T12:18:10.641Z,101025.60
2023-06-09T12:20:39.025Z,101022.32
2023-06-09T12:23:14.856Z,101020.66
2023-06-09T12:25:44.061Z,101015.21
2023-06-09T12:28:20.687Z,101015.66
2023-06-09T12:30:50.012Z,101015.84
2023-06-09T12:33:25.765Z,101017.59
2023-06-09T12:36:04.562Z,101013.32
2023-06-09T12:38:36.696Z,101011.52
2023-06-09T12:41:11.876Z,101010.92
2023-06-09T12:43:59.398Z,101008.73
2023-06-09T12:46:30.704Z,101002.40
2023-06-09T12:49:04.438Z,101003.96
2023-06-09T12:51:33.382Z,100996.81
2023-06-09T12:54:01.397Z,100995.54
2023-06-09T12:56:29.593Z,100997.27
2023-06-09T12:58:57.684Z,101000.54
2023-06-09T13:01:26.848Z,100996.38
2023-06-09T13:03:55.434Z,100991.23
2023-06-09T13:06:23.478Z,100995.63
2023-06-09T13:08:52.326Z,100991.79
2023-06-09T13:11:20.407Z,100995.85
2023-06-09T13:13:48.397Z,100994.42
2023-06-09T13:16:16.483Z,100989.94
2023-06-09T13:18:44.564Z,100988.52
2023-06-09T13:21:12.568Z,100987.66
2023-06-09T13:23:40.642Z,100985.06
2023-06-09T13:26:08.667Z,100991.48
2023-06-09T13:28:36.637Z,100987.41
2023-06-09T13:31:04.638Z,100982.42
2023-06-09T13:33:32.653Z,100978.55
2023-06-09T13:36:02.282Z,100977.02
2023-06-09T13:38:31.903Z,100973.20
2023-06-09T13:41:00.037Z,100966.90
2023-06-09T13:43:28.280Z,100963.68
2023-06-09T13:45:56.328Z,100960.66
2023-06-09T13:48:24.460Z,100965.27
2023-06-09T13:50:54.349Z,100968.04
2023-06-09T13:53:23.402Z,100972.16
2023-06-09T13:55:51.512Z,100970.04
2023-06-09T13:58:19.567Z,100970.61
2023-06-09T14:00:47.742Z,100966.12
2023-06-09T14:03:16.254Z,100966.67
2023-06-09T14:05:44.756Z,100964.31
2023-06-09T14:08:12.819Z,100958.77
2023-06-09T14:10:41.603Z,100959.75
2023-06-09T14:13:09.858Z,100959.10
2023-06-09T14:15:37.940Z,100959.52
2023-06-09T14:18:06.232Z,100958.48
2023-06-09T14:20:34.454Z,100959.48
2023-06-09T14:23:06.069Z,100958.34
2023-06-09T14:25:34.133Z,100960.14
2023-06-09T14:28:02.302Z,100965.54
2023-06-09T14:30:30.681Z,100971.52
2023-06-09T14:32:58.965Z,100973.91
2023-06-09T14:35:28.038Z,100975.46
2023-06-09T14:38:01.005Z,100978.52
2023-06-09T14:40:36.820Z,100981.10
2023-06-09T14:43:08.004Z,100981.60
2023-06-09T14:45:36.492Z,100981.67
2023-06-09T14:48:07.237Z,100979.50
2023-06-09T14:50:39.283Z,100975.71
2023-06-09T14:53:07.664Z,100977.23
2023-06-09T14:55:48.809Z,100978.59
2023-06-09T14:58:18.256Z,100980.83
2023-06-09T15:00:46.749Z,100979.77
2023-06-09T15:03:17.771Z,100985.55
2023-06-09T15:05:46.937Z,100992.60
2023-06-09T15:08:14.934Z,100994.64
2023-06-09T15:10:44.456Z,100991.70
2023-06-09T15:13:14.201Z,100997.58
2023-06-09T15:15:42.329Z,101003.38
2023-06-09T15:18:10.820Z,100999.18
2023-06-09T15:20:42.432Z,101011.09
2023-06-09T15:23:11.545Z,101003.84
2023-06-09T15:25:41.663Z,101005.34
2023-06-09T15:28:11.426Z,101010.60
2023-06-09T15:30:41.125Z,101009.60
2023-06-09T15:33:19.906Z,101004.34
2023-06-09T15:35:52.165Z,101006.91
2023-06-09T15:38:21.783Z,101000.73
2023-06-09T15:40:52.109Z,101000.16
2023-06-09T15:43:21.289Z,100999.05
2023-06-09T15:45:53.635Z,101005.73
2023-06-09T15:48:22.770Z,101008.48
2023-06-09T15:50:51.217Z,101014.84
2023-06-09T15:53:22.689Z,101009.45
2023-06-09T15:55:51.654Z,101009.02
2023-06-09T15:58:20.168Z,101007.79
2023-06-09T16:00:50.363Z,101008.92
2023-06-09T16:03:20.050Z,101012.17
2023-06-09T16:05:50.170Z,101009.58
2023-06-09T16:08:19.998Z,101012.79
2023-06-09T16:10:52.461Z,101011.54
2023-06-09T16:13:22.257Z,101008.27
2023-06-09T16:15:51.997Z,101016.04
2023-06-09T16:18:23.194Z,101014.52
2023-06-09T16:20:52.123Z,101019.77
2023-06-09T16:23:20.187Z,101019.64
2023-06-09T16:25:48.093Z,101022.98
2023-06-09T16:28:16.283Z,101021.46
2023-06-09T16:30:44.354Z,101023.27
2023-06-09T16:33:13.728Z,101031.06
2023-06-09T16:35:42.081Z,101028.04
2023-06-09T16:38:10.226Z,101025.95
2023-06-09T16:40:40.323Z,101037.66
2023-06-09T16:43:08.517Z,101036.81
2023-06-09T16:45:36.643Z,101041.73
2023-06-09T16:48:04.855Z,101039.64
2023-06-09T16:50:32.985Z,101038.45
2023-06-09T16:53:01.265Z,101036.87
2023-06-09T16:55:29.579Z,101034.94
2023-06-09T16:57:58.151Z,101035.65
2023-06-09T17:00:26.414Z,101037.32
2023-06-09T17:02:56.354Z,101041.17
2023-06-09T17:05:26.317Z,101040.36
2023-06-09T17:07:54.360Z,101045.00
2023-06-09T17:10:23.321Z,101044.31
2023-06-09T17:12:51.550Z,101043.06
2023-06-09T17:15:19.764Z,101045.92
2023-06-09T17:17:47.815Z,101049.90
2023-06-09T17:20:15.883Z,101045.64
2023-06-09T17:22:44.251Z,101047.30
2023-06-09T17:25:12.784Z,101048.05
2023-06-09T17:27:41.059Z,101051.77
2023-06-09T17:30:14.026Z,101048.26
2023-06-09T17:32:44.199Z,101053.89
2023-06-09T17:35:12.742Z,101053.70
2023-06-09T17:37:41.745Z,101055.48
2023-06-09T17:40:11.300Z,101057.27
2023-06-09T17:42:39.373Z,101058.11
2023-06-09T17:45:09.145Z,101062.52
2023-06-09T17:47:38.130Z,101066.20
2023-06-09T17:50:07.240Z,101063.55
2023-06-09T17:52:35.760Z,101061.73
2023-06-09T17:55:07.504Z,101063.21
2023-06-09T17:57:36.088Z,101063.71
2023-06-09T18:00:06.414Z,101070.69
2023-06-09T18:02:37.940Z,101073.77
2023-06-09T18:05:07.184Z,101074.39
2023-06-09T18:07:35.642Z,101076.41
2023-06-09T18:10:06.351Z,101080.04
2023-06-09T18:12:34.894Z,101079.36
2023-06-09T18:15:03.238Z,101080.41
2023-06-09T18:17:33.531Z,101081.29
2023-06-09T18:20:02.200Z,101086.02
2023-06-09T18:22:33.725Z,101085.52
2023-06-09T18:25:01.739Z,101088.23
2023-06-09T18:27:30.911Z,101087.27
2023-06-09T18:29:59.054Z,101090.20
2023-06-09T18:32:27.560Z,101093.27
2023-06-09T18:34:55.758Z,101094.67
2023-06-09T18:37:23.884Z,101098.21
2023-06-09T18:39:51.915Z,101106.17
2023-06-09T18:42:19.952Z,101105.88
2023-06-09T18:44:48.182Z,101107.13
2023-06-09T18:47:17.700Z,101108.91
2023-06-09T18:49:46.371Z,101112.13
2023-06-09T18:52:15.492Z,101112.52
2023-06-09T18:54:43.540Z,101114.20
2023-06-09T18:57:11.688Z,101122.26
2023-06-09T18:59:39.791Z,101120.73
2023-06-09T19:02:08.535Z,101121.41
2023-06-09T19:04:36.718Z,101127.23
2023-06-09T19:07:05.020Z,101128.27
2023-06-09T19:09:33.406Z,101127.76
2023-06-09T19:12:01.430Z,101128.64
2023-06-09T19:14:29.346Z,101130.55
2023-06-09T19:16:57.480Z,101136.52
2023-06-09T19:19:25.634Z,101134.92
2023-06-09T19:21:55.358Z,101142.22
2023-06-09T19:24:23.533Z,101141.23
2023-06-09T19:26:51.622Z,101144.45
2023-06-09T19:29:19.702Z,101144.66
2023-06-09T19:31:47.779Z,101149.08
2023-06-09T19:34:15.859Z,101147.78
2023-06-09T19:36:43.892Z,101153.92
2023-06-09T19:39:11.931Z,101148.73
2023-06-09T19:41:39.953Z,101152.98
2023-06-09T19:44:08.094Z,101152.47
2023-06-09T19:46:36.415Z,101149.41
2023-06-09T19:49:06.639Z,101149.05
2023-06-09T19:51:34.814Z,101154.30
2023-06-09T19:54:04.961Z,101154.66
2023-06-09T19:56:33.503Z,101155.09
2023-06-09T19:59:06.988Z,101154.85
2023-06-09T20:01:35.519Z,101158.60
2023-06-09T20:04:04.489Z,101162.73
2023-06-09T20:06:32.530Z,101165.30
2023-06-09T20:09:00.684Z,101162.38
2023-06-09T20:11:28.633Z,101163.13
2023-06-09T20:13:56.766Z,101163.34
2023-06-09T20:16:24.914Z,101165.71
2023-06-09T20:18:52.907Z,101168.34
2023-06-09T20:21:23.537Z,101163.65
2023-06-09T20:23:52.200Z,101164.96
2023-06-09T20:26:20.568Z,101160.64
2023-06-09T20:28:48.752Z,101162.70
2023-06-09T20:31:17.583Z,101163.56
2023-06-09T20:33:46.288Z,101169.22
2023-06-09T20:36:17.243Z,101178.21
2023-06-09T20:38:45.325Z,101179.46
2023-06-09T20:41:13.502Z,101180.77
2023-06-09T20:43:41.791Z,101182.27
2023-06-09T20:46:11.041Z,101186.14
2023-06-09T20:48:39.372Z,101183.88
2023-06-09T20:51:07.420Z,101182.76
2023-06-09T20:53:37.371Z,101182.40
2023-06-09T20:56:05.746Z,101180.20
2023-06-09T20:58:33.795Z,101185.15
2023-06-09T21:01:01.990Z,101179.59
2023-06-09T21:03:37.135Z,101182.09
2023-06-09T21:06:05.386Z,101188.53
2023-06-09T21:08:34.280Z,101198.59
2023-06-09T21:11:02.322Z,101195.27
2023-06-09T21:13:38.778Z,101196.16
2023-06-09T21:16:07.697Z,101193.77
2023-06-09T21:18:36.043Z,101196.74
2023-06-09T21:21:04.173Z,101203.03
2023-06-09T21:23:32.366Z,101201.36
2023-06-09T21:26:00.386Z,101206.98
2023-06-09T21:28:28.444Z,101208.77
2023-06-09T21:31:01.544Z,101206.60
2023-06-09T21:33:29.894Z,101207.66
2023-06-09T21:35:57.979Z,101208.76
2023-06-09T21:38:26.104Z,101204.63
2023-06-09T21:40:54.206Z,101208.18
2023-06-09T21:43:22.238Z,101210.74
2023-06-09T21:45:50.336Z,101202.73
2023-06-09T21:48:18.900Z,101205.36
2023-06-09T21:50:47.812Z,101209.88
2023-06-09T21:53:15.932Z,101207.60
2023-06-09T21:55:45.761Z,101209.61
2023-06-09T21:58:13.827Z,101209.56
2023-06-09T22:00:41.752Z,101208.15
2023-06-09T22:03:10.903Z,101207.82
2023-06-09T22:05:39.154Z,101207.15
2023-06-09T22:08:07.121Z,101206.00
2023-06-09T22:10:36.793Z,101210.45
2023-06-09T22:13:04.807Z,101211.58
2023-06-09T22:15:32.905Z,101213.96
2023-06-09T22:18:01.347Z,101212.88
2023-06-09T22:20:29.419Z,101215.69
2023-06-09T22:22:57.445Z,101215.37
2023-06-09T22:25:25.666Z,101219.22
2023-06-09T22:27:53.685Z,101218.45
2023-06-09T22:30:21.649Z,101213.70
2023-06-09T22:32:49.754Z,101212.18
2023-06-09T22:35:18.314Z,101218.84
2023-06-09T22:37:46.376Z,101223.61
2023-06-09T22:40:14.373Z,101225.11
2023-06-09T22:42:42.492Z,101227.32
2023-06-09T22:45:11.769Z,101225.08
2023-06-09T22:47:42.523Z,101229.23
2023-06-09T22:50:12.887Z,101228.76
2023-06-09T22:52:46.344Z,101233.29
2023-06-09T22:55:15.804Z,101236.50
2023-06-09T22:57:51.318Z,101240.01
2023-06-09T23:00:23.360Z,101243.25
2023-06-09T23:02:52.698Z,101243.86
2023-06-09T23:05:28.651Z,101243.06
2023-06-09T23:07:57.014Z,101244.77
2023-06-09T23:10:25.654Z,101241.46
2023-06-09T23:12:53.761Z,101245.27
2023-06-09T23:15:24.082Z,101243.65
2023-06-09T23:17:53.804Z,101244.70
2023-06-09T23:20:22.901Z,101240.65
2023-06-09T23:22:54.040Z,101241.16
2023-06-09T23:25:23.441Z,101239.89
2023-06-09T23:27:51.743Z,101241.79
2023-06-09T23:30:19.799Z,101241.56
2023-06-09T23:32:47.947Z,101244.73
2023-06-09T23:35:18.243Z,101245.52
2023-06-09T23:37:47.111Z,101243.95
2023-06-09T23:40:15.473Z,101249.48
2023-06-09T23:42:43.511Z,101250.61
2023-06-09T23:45:12.096Z,101246.77
2023-06-09T23:47:40.624Z,101249.69
2023-06-09T23:50:09.152Z,101250.98
2023-06-09T23:52:37.388Z,101249.34
2023-06-09T23:55:06.196Z,101249.00
2023-06-09T23:57:34.625Z,101254.97
